Time;durP1;ratioP1;P1;durP2;ratioP2;P2;SDS_P1;SDS_P2;PMS_P1;PMS_P2;Temp;Humidity;BMP_temperature;BMP_pressure;BME280_temperature;BME280_humidity;BME280_pressure;Samples;Min_cycle;Max_cycle;Signal;HPM_P1;HPM_P2
2022/04/05 00:01:40;;;;;;;62.22;26.63;;;;;;;4.12;90.74;97268.63;6235775;23;20005;-85
2022/04/05 00:04:05;;;;;;;73.50;31.42;;;;;;;4.15;90.52;97256.09;6233728;22;20013;-87
2022/04/05 00:06:31;;;;;;;77.38;33.10;;;;;;;4.30;90.10;97281.09;6234726;22;20066;-87
2022/04/05 00:08:56;;;;;;;66.93;30.50;;;;;;;4.01;90.98;97239.06;6233025;23;20069;-87
2022/04/05 00:11:22;;;;;;;81.90;35.30;;;;;;;4.04;90.37;97247.75;6233427;22;20029;-87
2022/04/05 00:13:47;;;;;;;73.75;32.30;;;;;;;4.12;90.61;97269.47;6231779;23;20033;-87
2022/04/05 00:16:13;;;;;;;55.80;25.77;;;;;;;4.10;90.83;97265.16;6232819;22;20424;-86
2022/04/05 00:18:39;;;;;;;92.60;36.58;;;;;;;4.06;91.20;97259.13;6234186;22;20043;-86
2022/04/05 00:21:05;;;;;;;103.15;40.42;;;;;;;4.05;90.94;97240.69;6233375;22;20066;-85
2022/04/05 00:23:30;;;;;;;53.25;26.40;;;;;;;4.10;90.76;97236.06;6234393;22;20029;-86
2022/04/05 00:25:56;;;;;;;68.22;31.10;;;;;;;4.04;90.35;97220.44;6234569;22;20008;-87
2022/04/05 00:28:21;;;;;;;62.70;27.15;;;;;;;4.22;90.11;97254.06;6234030;22;20005;-86
2022/04/05 00:30:47;;;;;;;47.30;22.77;;;;;;;4.23;90.58;97261.97;6240168;22;20058;-87
2022/04/05 00:33:13;;;;;;;23.13;11.90;;;;;;;4.25;88.99;97240.72;6240321;22;20056;-86
2022/04/05 00:35:38;;;;;;;22.05;12.00;;;;;;;4.17;88.42;97224.31;6242944;22;20101;-86
2022/04/05 00:38:04;;;;;;;47.45;20.20;;;;;;;4.18;89.03;97237.44;6242697;23;20128;-86
2022/04/05 00:40:30;;;;;;;26.52;15.57;;;;;;;4.14;88.43;97233.22;6240347;22;20006;-87
2022/04/05 00:42:56;;;;;;;22.55;12.23;;;;;;;3.94;88.22;97219.13;6242184;22;20016;-86
2022/04/05 00:45:21;;;;;;;23.20;12.38;;;;;;;3.93;89.00;97223.53;6240983;22;20009;-87
2022/04/05 00:47:51;;;;;;;22.92;12.75;;;;;;;3.99;89.92;97251.53;6240760;22;20021;-86
2022/04/05 00:50:21;;;;;;;25.98;12.38;;;;;;;3.75;90.23;97206.59;6238035;23;20012;-86
2022/04/05 00:52:48;;;;;;;21.77;12.77;;;;;;;3.90;90.83;97220.16;6234264;23;20009;-86
2022/04/05 00:55:22;;;;;;;21.10;12.55;;;;;;;3.77;91.33;97210.06;6233058;22;20009;-86
2022/04/05 00:57:50;;;;;;;22.20;12.68;;;;;;;3.93;92.30;97241.19;6232847;22;20070;-87
2022/04/05 01:00:16;;;;;;;24.08;13.02;;;;;;;3.81;92.50;97232.81;6232985;22;20032;-86
2022/04/05 01:02:42;;;;;;;26.10;13.07;;;;;;;3.65;92.44;97199.13;6232927;23;20005;-86
2022/04/05 01:05:08;;;;;;;33.00;17.42;;;;;;;3.63;93.06;97199.16;6233365;22;20009;-87
2022/04/05 01:07:34;;;;;;;29.50;15.55;;;;;;;3.81;92.92;97235.44;6233714;23;20009;-86
2022/04/05 01:10:00;;;;;;;28.30;15.70;;;;;;;3.79;93.12;97217.94;6233761;23;20053;-87
2022/04/05 01:12:26;;;;;;;36.13;16.40;;;;;;;3.71;93.10;97220.03;6233619;22;20052;-86
2022/04/05 01:21:27;;;;;;;27.33;15.57;;;;;;;3.69;93.40;97214.78;6187236;23;20022;-87
2022/04/05 01:24:12;;;;;;;30.08;15.73;;;;;;;3.65;93.40;97199.13;6197026;23;20035;-88
2022/04/05 01:26:40;;;;;;;34.08;16.08;;;;;;;3.66;93.95;97200.84;6196504;23;20023;-87
2022/04/05 01:29:06;;;;;;;29.90;15.70;;;;;;;3.66;93.91;97193.75;6196974;23;20011;-87
2022/04/05 01:31:38;;;;;;;27.88;16.63;;;;;;;3.58;93.55;97184.41;6196537;23;20367;-87
2022/04/05 01:34:04;;;;;;;33.53;18.15;;;;;;;3.58;94.38;97200.28;6196673;23;20031;-88
2022/04/05 01:36:30;;;;;;;33.15;17.60;;;;;;;3.49;95.03;97190.94;6197955;23;20000;-87
2022/04/05 01:38:56;;;;;;;31.05;17.13;;;;;;;3.45;95.36;97188.47;6197325;23;20094;-87
2022/04/05 01:41:21;;;;;;;40.92;21.65;;;;;;;3.45;95.11;97176.13;6196520;23;20478;-87
2022/04/05 01:43:47;;;;;;;35.35;19.05;;;;;;;3.57;94.91;97196.78;6195453;23;20004;-86
2022/04/05 01:46:12;;;;;;;41.28;20.20;;;;;;;3.59;95.68;97199.38;6196052;23;20359;-87
2022/04/05 01:48:39;;;;;;;49.42;24.05;;;;;;;3.55;95.42;97193.34;6203175;23;20021;-86
2022/04/05 01:51:05;;;;;;;64.72;27.75;;;;;;;3.60;95.36;97216.97;6232363;22;20005;-87
2022/04/05 01:53:57;;;;;;;53.10;26.27;;;;;;;3.61;96.05;97213.38;6233463;22;20005;-87
2022/04/05 01:56:23;;;;;;;53.22;27.13;;;;;;;3.43;95.99;97195.59;6232044;22;20009;-86
2022/04/05 01:58:49;;;;;;;43.97;22.25;;;;;;;3.46;96.41;97214.00;6230712;22;20071;-86
2022/04/05 02:01:15;;;;;;;37.92;17.33;;;;;;;3.32;95.35;97201.34;6230287;22;20453;-87
2022/04/05 02:03:40;;;;;;;32.13;17.08;;;;;;;3.31;95.24;97204.03;6256661;22;20058;-86
2022/04/05 02:06:08;;;;;;;31.35;15.73;;;;;;;3.33;95.60;97210.09;6230558;23;20002;-87
2022/04/05 02:08:33;;;;;;;28.67;16.73;;;;;;;3.26;95.46;97209.50;6230600;22;20010;-87
2022/04/05 02:10:59;;;;;;;33.20;17.30;;;;;;;3.18;95.37;97198.34;6230472;23;20036;-87
2022/04/05 02:13:25;;;;;;;31.45;17.15;;;;;;;3.11;96.10;97205.63;6230971;22;20032;-86
2022/04/05 02:15:50;;;;;;;29.17;15.45;;;;;;;2.94;95.85;97188.72;6230730;22;20076;-86
2022/04/05 02:18:16;;;;;;;32.08;15.13;;;;;;;2.93;96.78;97208.97;6230843;22;20009;-87
2022/04/05 02:20:42;;;;;;;33.50;17.52;;;;;;;2.72;98.02;97184.25;6231329;23;20021;-86
2022/04/05 02:23:37;;;;;;;35.88;17.42;;;;;;;2.84;98.51;97208.44;6257087;22;20006;-86
2022/04/05 02:26:03;;;;;;;37.63;18.15;;;;;;;2.87;98.61;97203.06;6231503;23;20006;-86
2022/04/05 02:28:28;;;;;;;38.47;18.02;;;;;;;2.82;98.51;97199.75;6230487;23;20005;-86
2022/04/05 02:30:54;;;;;;;36.28;18.30;;;;;;;2.90;98.47;97203.81;6256669;22;20006;-86
2022/04/05 02:33:20;;;;;;;35.85;18.95;;;;;;;2.67;98.79;97177.41;6230886;22;20013;-86
2022/04/05 02:35:46;;;;;;;33.30;17.75;;;;;;;2.78;98.79;97198.97;6230313;22;20001;-87
2022/04/05 02:38:11;;;;;;;32.28;16.98;;;;;;;2.75;98.79;97201.75;6231377;22;20321;-87
2022/04/05 02:40:37;;;;;;;34.45;17.73;;;;;;;2.63;99.61;97176.66;6231720;22;20353;-87
2022/04/05 02:43:03;;;;;;;34.80;16.90;;;;;;;2.70;99.32;97201.06;6231259;23;20005;-87
2022/04/05 02:45:30;;;;;;;33.38;18.35;;;;;;;2.54;100.00;97171.72;6236570;23;20445;-87
2022/04/05 02:47:56;;;;;;;31.42;16.90;;;;;;;2.45;100.00;97172.06;6231082;23;20073;-87
2022/04/05 02:50:22;;;;;;;33.75;16.63;;;;;;;2.38;100.00;97167.03;6232623;23;20010;-87
2022/04/05 02:52:48;;;;;;;40.30;18.98;;;;;;;2.38;100.00;97183.72;6233372;23;20005;-87
2022/04/05 02:55:15;;;;;;;43.15;19.40;;;;;;;2.35;100.00;97175.94;6233132;23;20016;-87
2022/04/05 02:57:41;;;;;;;56.92;26.75;;;;;;;2.40;100.00;97173.13;6234638;22;20067;-87
2022/04/05 03:00:08;;;;;;;41.85;19.85;;;;;;;2.49;100.00;97186.84;6261365;22;20006;-87
2022/04/05 03:02:34;;;;;;;34.97;18.90;;;;;;;2.47;100.00;97178.13;6239478;22;20002;-87
2022/04/05 03:05:01;;;;;;;33.90;18.05;;;;;;;2.39;100.00;97174.03;6240637;22;20019;-87
2022/04/05 03:07:27;;;;;;;32.70;18.63;;;;;;;2.32;100.00;97162.84;6239215;22;20080;-87
2022/04/05 03:09:53;;;;;;;45.85;19.85;;;;;;;2.41;100.00;97159.88;6258124;22;20031;-86
2022/04/05 03:12:18;;;;;;;43.58;18.80;;;;;;;2.42;100.00;97158.09;6252391;22;20018;-88
2022/04/05 03:14:45;;;;;;;40.50;18.63;;;;;;;2.35;100.00;97157.44;6253629;22;20133;-86
2022/04/05 03:17:12;;;;;;;36.95;17.48;;;;;;;2.37;100.00;97155.59;6253704;22;20004;-87
2022/04/05 03:19:38;;;;;;;40.42;17.25;;;;;;;2.41;100.00;97166.91;6253525;22;20004;-87
2022/04/05 03:22:05;;;;;;;35.05;16.98;;;;;;;2.40;100.00;97173.97;6255433;22;20031;-86
2022/04/05 03:24:31;;;;;;;31.08;16.13;;;;;;;2.26;100.00;97163.06;6258975;22;20008;-86
2022/04/05 03:26:57;;;;;;;29.63;14.60;;;;;;;2.30;100.00;97159.41;6259153;22;20351;-87
2022/04/05 03:29:23;;;;;;;33.03;15.60;;;;;;;2.25;100.00;97158.69;6257815;22;20070;-86
2022/04/05 03:31:49;;;;;;;33.50;15.40;;;;;;;2.19;100.00;97148.34;6257509;22;20010;-86
2022/04/05 03:34:14;;;;;;;47.05;18.63;;;;;;;2.22;100.00;97156.16;6257261;22;20003;-87
2022/04/05 03:36:43;;;;;;;47.17;19.42;;;;;;;2.13;100.00;97133.63;6256309;22;19999;-86
2022/04/05 03:39:10;;;;;;;54.05;26.05;;;;;;;2.09;100.00;97136.44;6254783;22;20000;-86
2022/04/05 03:41:36;;;;;;;63.97;26.30;;;;;;;2.16;100.00;97148.47;6253090;22;20501;-84
2022/04/05 03:44:17;;;;;;;58.83;26.95;;;;;;;2.21;100.00;97165.00;6259170;22;20034;-86
2022/04/05 03:46:43;;;;;;;51.17;24.75;;;;;;;2.07;100.00;97156.69;6256412;22;20004;-86
2022/04/05 03:49:08;;;;;;;50.80;26.05;;;;;;;2.23;100.00;97171.09;6280846;22;20022;-89
2022/04/05 03:51:35;;;;;;;58.47;24.73;;;;;;;2.12;100.00;97157.41;6279755;22;20003;-86
2022/04/05 03:54:00;;;;;;;60.75;22.67;;;;;;;2.10;100.00;97159.22;6251853;22;20015;-85
2022/04/05 03:56:26;;;;;;;56.83;22.67;;;;;;;2.07;100.00;97146.16;6277970;22;20000;-84
2022/04/05 03:58:51;;;;;;;55.70;23.58;;;;;;;1.94;100.00;97153.63;6254959;22;20007;-87
2022/04/05 04:01:17;;;;;;;53.53;23.73;;;;;;;1.87;100.00;97157.41;6259776;22;20050;-86
2022/04/05 04:03:43;;;;;;;58.28;22.38;;;;;;;2.01;100.00;97183.28;6259269;22;20003;-86
2022/04/05 04:06:09;;;;;;;51.78;24.25;;;;;;;1.96;100.00;97179.97;6255913;22;20012;-86
2022/04/05 04:08:35;;;;;;;50.28;24.08;;;;;;;1.90;100.00;97156.44;6255351;22;20025;-86
2022/04/05 04:11:01;;;;;;;61.40;26.67;;;;;;;1.84;100.00;97127.66;6280449;22;20371;-86
2022/04/05 04:13:27;;;;;;;54.97;25.02;;;;;;;1.96;100.00;97162.38;6256685;22;20010;-77
2022/04/05 04:15:53;;;;;;;51.38;23.17;;;;;;;2.06;100.00;97176.09;6256038;22;20004;-87
2022/04/05 04:18:19;;;;;;;65.40;27.42;;;;;;;1.92;100.00;97155.47;6259597;22;19999;-85
2022/04/05 04:20:51;;;;;;;51.50;26.30;;;;;;;2.03;100.00;97182.31;6265119;22;19999;-87
2022/04/05 04:23:40;;;;;;;51.63;25.80;;;;;;;1.47;100.00;97102.53;6261962;22;20004;-85
2022/04/05 04:26:52;;;;;;;55.70;27.45;;;;;;;2.04;100.00;97177.91;6261707;22;20000;-86
2022/04/05 04:29:18;;;;;;;55.17;26.48;;;;;;;1.86;100.00;97146.91;6283473;22;20148;-87
2022/04/05 04:31:43;;;;;;;55.28;25.42;;;;;;;1.98;100.00;97146.47;6285039;22;20019;-87
2022/04/05 04:34:09;;;;;;;55.13;28.67;;;;;;;2.04;100.00;97151.53;6253867;22;20012;-86
2022/04/05 04:36:35;;;;;;;61.33;27.08;;;;;;;2.22;100.00;97157.94;6251126;22;20000;-87
2022/04/05 04:39:00;;;;;;;55.63;26.65;;;;;;;2.33;100.00;97161.94;6260182;22;20497;-86
2022/04/05 04:41:26;;;;;;;66.20;28.48;;;;;;;2.42;100.00;97164.25;6258771;22;19994;-87
2022/04/05 04:43:53;;;;;;;66.00;28.63;;;;;;;2.38;100.00;97154.69;6258359;22;20030;-86
2022/04/05 04:46:19;;;;;;;72.60;31.50;;;;;;;2.56;100.00;97182.19;6257393;22;20010;-87
2022/04/05 04:48:44;;;;;;;65.82;25.77;;;;;;;2.47;100.00;97172.84;6252910;22;20082;-87
2022/04/05 04:51:16;;;;;;;55.45;22.38;;;;;;;2.24;100.00;97170.19;6250366;22;20031;-85
2022/04/05 04:53:42;;;;;;;51.07;21.03;;;;;;;2.02;100.00;97140.19;6254757;22;20008;-86
2022/04/05 04:56:08;;;;;;;40.60;18.27;;;;;;;2.00;100.00;97165.75;6255212;22;20063;-86
2022/04/05 04:58:34;;;;;;;39.45;17.40;;;;;;;2.27;100.00;97191.19;6256594;22;20007;-88
2022/04/05 05:00:59;;;;;;;54.45;20.48;;;;;;;2.26;100.00;97181.53;6254221;22;20069;-86
2022/04/05 05:03:25;;;;;;;52.88;21.20;;;;;;;2.34;100.00;97152.25;6255058;22;20081;-86
2022/04/05 05:05:51;;;;;;;52.03;25.10;;;;;;;2.67;99.67;97180.91;6250152;22;20032;-86
2022/04/05 05:08:16;;;;;;;48.83;20.80;;;;;;;2.62;98.82;97151.16;6258998;22;20003;-88
2022/04/05 05:10:42;;;;;;;49.45;22.77;;;;;;;2.90;98.19;97187.97;6259109;22;20026;-87
2022/04/05 05:13:25;;;;;;;61.28;26.42;;;;;;;3.11;96.77;97181.88;6274640;22;20004;-90
2022/04/05 05:15:53;;;;;;;65.97;24.70;;;;;;;3.39;95.33;97200.16;6274109;22;20015;-89
2022/04/05 05:18:19;;;;;;;70.35;30.38;;;;;;;3.29;94.36;97153.88;6274700;22;20019;-89
2022/04/05 05:20:55;;;;;;;53.10;25.58;;;;;;;3.80;93.09;97178.22;6296610;22;20000;-88
2022/04/05 05:23:26;;;;;;;57.42;27.83;;;;;;;3.68;90.04;97135.53;6251994;22;20011;-89
2022/04/05 05:25:55;;;;;;;65.95;29.20;;;;;;;4.00;87.71;97127.09;6251642;22;20014;-88
2022/04/05 05:28:22;;;;;;;57.58;28.15;;;;;;;5.55;82.12;97203.03;6251078;22;20019;-89
2022/04/05 05:31:13;;;;;;;60.70;30.10;;;;;;;6.56;75.03;97143.94;6277304;22;20067;-89
2022/04/05 05:33:38;;;;;;;60.83;30.10;;;;;;;7.83;68.20;97157.31;6287016;22;20007;-87
2022/04/05 05:36:05;;;;;;;65.25;31.52;;;;;;;8.96;61.81;97098.94;6268749;22;20010;-87
2022/04/05 05:38:31;;;;;;;62.25;31.10;;;;;;;10.34;57.60;97179.78;6288580;22;20008;-88
2022/04/05 05:40:56;;;;;;;70.82;32.10;;;;;;;10.98;55.38;97159.34;6252568;22;20059;-87
2022/04/05 05:43:23;;;;;;;58.80;30.92;;;;;;;11.39;52.99;97159.94;6252217;22;20063;-87
2022/04/05 05:45:49;;;;;;;89.03;39.28;;;;;;;11.33;52.26;97165.75;6255102;22;20061;-88
2022/04/05 05:48:15;;;;;;;88.15;43.53;;;;;;;10.90;53.68;97180.41;6254537;22;19999;-87
2022/04/05 05:50:40;;;;;;;79.38;41.25;;;;;;;10.85;54.02;97180.75;6255572;22;20629;-87
2022/04/05 05:53:06;;;;;;;85.38;40.45;;;;;;;11.18;53.07;97158.78;6253075;22;20038;-89
2022/04/05 05:55:32;;;;;;;74.80;40.72;;;;;;;11.42;52.34;97143.66;6254699;22;20010;-89
2022/04/05 05:57:58;;;;;;;75.70;38.85;;;;;;;10.90;52.81;97156.34;6259648;22;19999;-88
2022/04/05 06:00:24;;;;;;;89.78;39.85;;;;;;;10.65;53.81;97175.88;6264570;22;20297;-89
2022/04/05 06:02:58;;;;;;;85.22;41.03;;;;;;;10.58;54.07;97129.13;6259776;22;20007;-88
2022/04/05 06:05:24;;;;;;;76.72;38.03;;;;;;;10.58;53.66;97122.94;6264800;22;20038;-89
2022/04/05 06:07:50;;;;;;;73.20;37.72;;;;;;;10.16;54.95;97164.97;6267584;22;20000;-89
2022/04/05 06:10:17;;;;;;;72.15;35.65;;;;;;;9.62;56.36;97107.13;6267711;22;20023;-89
2022/04/05 06:12:45;;;;;;;71.20;32.13;;;;;;;10.16;55.31;97143.59;6260394;22;20090;-85
2022/04/05 06:15:15;;;;;;;71.80;30.05;;;;;;;10.51;54.50;97138.53;6250822;22;20006;-86
2022/04/05 06:17:44;;;;;;;62.58;30.77;;;;;;;10.43;54.65;97148.88;6256736;22;20007;-87
2022/04/05 06:20:11;;;;;;;46.78;25.00;;;;;;;11.11;53.46;97160.19;6259678;22;20029;-90
2022/04/05 06:22:47;;;;;;;45.95;24.15;;;;;;;11.36;52.65;97144.09;6262014;22;20007;-88
2022/04/05 06:25:15;;;;;;;62.00;24.63;;;;;;;12.06;50.69;97156.91;6286374;22;20004;-89
2022/04/05 06:27:40;;;;;;;58.50;24.77;;;;;;;13.22;48.02;97125.56;6263108;22;20011;-90
2022/04/05 06:30:08;;;;;;;45.05;22.40;;;;;;;14.23;45.66;97141.41;6262698;22;20000;-89
2022/04/05 06:32:35;;;;;;;44.90;21.90;;;;;;;14.78;44.14;97128.72;6264308;22;20027;-87
2022/04/05 06:35:03;;;;;;;47.75;22.23;;;;;;;14.92;43.47;97126.53;6263052;22;20019;-89
2022/04/05 06:37:30;;;;;;;47.53;21.40;;;;;;;15.28;42.95;97125.22;6260950;22;20000;-89
2022/04/05 06:39:56;;;;;;;39.15;17.90;;;;;;;15.42;42.38;97110.50;6259962;22;20011;-87
2022/04/05 06:42:22;;;;;;;48.22;16.65;;;;;;;16.60;40.53;97099.72;6260196;22;20034;-89
2022/04/05 06:44:47;;;;;;;26.42;15.23;;;;;;;16.35;39.46;97102.94;6259116;22;20008;-88
2022/04/05 06:47:13;;;;;;;29.10;15.18;;;;;;;16.78;39.19;97085.34;6258802;22;20004;-88
2022/04/05 06:49:38;;;;;;;21.95;14.80;;;;;;;17.60;37.72;97107.19;6255596;22;20013;-89
2022/04/05 06:52:05;;;;;;;30.23;17.85;;;;;;;17.99;36.73;97086.19;6255192;22;20465;-89
2022/04/05 06:54:30;;;;;;;32.95;16.92;;;;;;;18.37;36.04;97080.50;6256706;22;20012;-88
2022/04/05 06:56:57;;;;;;;32.10;15.50;;;;;;;17.67;37.03;97086.66;6284949;22;20006;-91
2022/04/05 06:59:22;;;;;;;32.22;15.85;;;;;;;17.93;37.17;97108.44;6259956;22;20366;-91
2022/04/05 07:01:49;;;;;;;21.48;14.55;;;;;;;17.23;37.37;97076.53;6285996;22;20461;-92
2022/04/05 07:04:14;;;;;;;19.15;12.07;;;;;;;19.43;35.24;97071.38;6260920;22;20037;-91
2022/04/05 07:06:40;;;;;;;21.90;12.40;;;;;;;20.35;33.33;97044.22;6259317;22;20030;-91
2022/04/05 07:09:07;;;;;;;22.65;12.25;;;;;;;20.24;33.09;97049.94;6242651;22;20026;-91
2022/04/05 07:11:33;;;;;;;29.25;16.98;;;;;;;18.22;35.89;97070.34;6237790;22;20088;-90
2022/04/05 07:13:58;;;;;;;31.70;17.15;;;;;;;18.63;35.97;97096.00;6237086;22;20014;-91
2022/04/05 07:16:25;;;;;;;31.00;15.02;;;;;;;19.95;33.83;97069.38;6237101;22;20009;-91
2022/04/05 07:18:50;;;;;;;14.73;10.20;;;;;;;19.75;33.08;97062.53;6265059;22;20020;-90
2022/04/05 07:21:18;;;;;;;16.17;10.25;;;;;;;19.39;33.94;97080.78;6235893;22;20005;-90
2022/04/05 07:23:44;;;;;;;19.92;11.00;;;;;;;20.51;32.99;97063.25;6236987;22;20010;-92
2022/04/05 07:26:10;;;;;;;19.40;13.05;;;;;;;21.06;32.03;97055.25;6235126;22;20025;-91
2022/04/05 07:28:36;;;;;;;17.73;9.88;;;;;;;21.07;31.81;97063.22;6235357;23;20009;-91
2022/04/05 07:31:03;;;;;;;14.07;7.65;;;;;;;21.58;31.43;97061.13;6236883;22;20001;-91
2022/04/05 07:33:31;;;;;;;21.35;11.73;;;;;;;21.16;31.69;97061.41;6239079;23;20008;-91
2022/04/05 07:35:57;;;;;;;14.77;8.18;;;;;;;21.97;29.70;97045.66;6237382;22;20445;-91
2022/04/05 07:38:24;;;;;;;10.52;7.10;;;;;;;21.75;30.38;97042.88;6238484;23;20012;-90
2022/04/05 07:40:50;;;;;;;9.73;6.43;;;;;;;21.62;30.56;97070.66;6238741;22;20030;-91
2022/04/05 07:43:24;;;;;;;12.68;7.45;;;;;;;23.11;28.72;97052.00;6238282;23;20005;-90
2022/04/05 07:45:50;;;;;;;12.45;6.60;;;;;;;22.94;28.35;97045.03;6238091;23;20009;-89
2022/04/05 07:48:17;;;;;;;22.73;7.57;;;;;;;23.21;27.55;97044.41;6237396;22;20043;-90
2022/04/05 07:50:43;;;;;;;17.75;9.90;;;;;;;22.80;28.08;97040.34;6234870;23;20032;-92
2022/04/05 07:53:09;;;;;;;10.02;5.57;;;;;;;22.65;28.35;97020.38;6234443;22;20437;-90
2022/04/05 07:55:34;;;;;;;7.45;5.07;;;;;;;23.12;27.82;97017.41;6234372;22;20016;-89
2022/04/05 07:58:00;;;;;;;9.63;4.55;;;;;;;23.03;27.76;97016.63;6233941;22;20005;-89
2022/04/05 08:00:27;;;;;;;5.22;4.15;;;;;;;23.79;26.51;97011.88;6234298;23;20404;-90
2022/04/05 08:02:52;;;;;;;7.50;5.47;;;;;;;24.36;26.48;97017.44;6233950;22;20009;-90
2022/04/05 08:05:18;;;;;;;13.68;6.65;;;;;;;23.55;26.98;97010.28;6234766;22;20409;-91
2022/04/05 08:07:44;;;;;;;8.02;4.38;;;;;;;23.75;26.43;96989.53;6235434;22;20049;-90
2022/04/05 08:10:10;;;;;;;9.18;4.65;;;;;;;24.60;25.89;96996.03;6255133;22;20503;-91
2022/04/05 08:12:47;;;;;;;20.20;10.52;;;;;;;23.58;27.44;97007.19;6255399;22;20079;-89
2022/04/05 08:15:19;;;;;;;17.10;7.60;;;;;;;24.75;26.06;97010.47;6255041;22;20010;-89
2022/04/05 08:17:45;;;;;;;18.35;8.85;;;;;;;23.77;26.95;97003.03;6254091;22;20042;-89
2022/04/05 08:20:11;;;;;;;14.50;7.43;;;;;;;24.36;26.47;97007.34;6254371;22;20139;-90
2022/04/05 08:22:37;;;;;;;21.38;7.50;;;;;;;25.66;25.31;96994.97;6255253;22;20149;-90
2022/04/05 08:25:04;;;;;;;7.35;5.38;;;;;;;26.13;24.57;96986.75;6256283;22;20010;-90
2022/04/05 08:27:30;;;;;;;5.07;4.10;;;;;;;24.53;25.32;96977.84;6255497;22;20578;-90
2022/04/05 08:29:55;;;;;;;11.80;6.72;;;;;;;24.75;25.32;97004.16;6254899;22;20014;-90
2022/04/05 08:32:21;;;;;;;6.43;4.20;;;;;;;22.59;26.96;96986.47;6255528;22;20004;-89
2022/04/05 08:34:47;;;;;;;7.15;4.40;;;;;;;24.19;25.54;96964.88;6256152;22;20003;-91
2022/04/05 08:37:13;;;;;;;8.07;4.68;;;;;;;22.70;26.55;96976.22;6255414;22;20004;-91
2022/04/05 08:39:41;;;;;;;6.82;3.80;;;;;;;22.50;26.56;96957.59;6230040;22;20007;-89
2022/04/05 08:42:07;;;;;;;8.18;3.90;;;;;;;23.69;24.88;96969.31;6255313;22;20098;-91
2022/04/05 08:44:33;;;;;;;4.82;2.92;;;;;;;23.96;23.45;96956.84;6255898;22;20008;-88
2022/04/05 08:47:00;;;;;;;3.33;2.75;;;;;;;24.93;21.93;96948.97;6254230;22;20050;-90
2022/04/05 08:49:27;;;;;;;4.40;3.15;;;;;;;24.06;21.57;96935.47;6253757;22;20003;-91
2022/04/05 08:51:53;;;;;;;3.80;2.88;;;;;;;24.87;20.75;96912.31;6255409;22;20423;-90
2022/04/05 08:54:19;;;;;;;5.10;3.17;;;;;;;24.83;19.28;96921.09;6256423;22;20026;-88
2022/04/05 08:56:50;;;;;;;4.50;2.67;;;;;;;26.00;17.21;96901.72;6255162;22;19996;-89
2022/04/05 08:59:16;;;;;;;4.72;2.40;;;;;;;26.57;17.32;96887.47;6255071;22;20466;-91
2022/04/05 09:01:41;;;;;;;2.13;1.80;;;;;;;26.47;16.34;96888.94;6254271;22;20010;-89
2022/04/05 09:04:07;;;;;;;4.68;2.20;;;;;;;26.70;15.46;96873.72;6255395;22;20003;-88
2022/04/05 09:06:36;;;;;;;2.30;1.88;;;;;;;24.65;16.35;96867.69;6254534;22;20026;-89
2022/04/05 09:09:10;;;;;;;1.92;1.73;;;;;;;25.45;16.67;96885.47;6240783;22;20000;-89
2022/04/05 09:11:49;;;;;;;7.40;2.05;;;;;;;26.88;15.58;96868.50;6260030;22;20016;-89
2022/04/05 09:14:25;;;;;;;3.47;2.25;;;;;;;25.92;16.50;96863.53;6233486;22;20039;-90
2022/04/05 09:17:08;;;;;;;2.20;2.00;;;;;;;26.52;16.07;96875.47;6233616;22;20002;-90
2022/04/05 09:19:38;;;;;;;3.20;1.90;;;;;;;25.54;16.75;96851.38;6233343;22;20084;-90
2022/04/05 09:22:04;;;;;;;2.38;2.08;;;;;;;25.69;16.47;96843.84;6259829;22;20453;-90
2022/04/05 09:24:38;;;;;;;3.63;1.90;;;;;;;26.95;16.04;96854.72;6233515;23;20069;-89
2022/04/05 09:27:05;;;;;;;2.80;2.25;;;;;;;26.94;17.73;96861.28;6237218;23;20006;-90
2022/04/05 09:29:41;;;;;;;8.60;2.30;;;;;;;27.00;17.59;96867.81;6259164;22;20011;-92
2022/04/05 09:32:07;;;;;;;3.70;2.40;;;;;;;26.46;18.44;96854.31;6235969;22;20005;-91
2022/04/05 09:34:33;;;;;;;4.55;2.63;;;;;;;28.09;17.08;96843.94;6234860;23;20036;-92
2022/04/05 09:37:07;;;;;;;9.65;2.20;;;;;;;28.35;16.52;96838.25;6235374;23;20001;-91
2022/04/05 09:39:33;;;;;;;2.17;1.92;;;;;;;26.73;17.56;96847.78;6234402;22;20016;-90
2022/04/05 09:42:00;;;;;;;2.42;2.00;;;;;;;25.69;18.44;96852.06;6235308;22;20088;-91
2022/04/05 09:44:37;;;;;;;4.03;2.40;;;;;;;27.57;17.55;96834.03;6234984;22;20012;-92
2022/04/05 09:47:10;;;;;;;4.93;3.13;;;;;;;28.81;16.70;96832.38;6235310;22;20006;-91
2022/04/05 09:49:41;;;;;;;7.95;3.88;;;;;;;29.05;16.99;96845.25;6234321;22;20353;-90
2022/04/05 09:52:32;;;;;;;3.95;2.90;;;;;;;28.42;17.43;96848.16;6235700;22;20105;-90
2022/04/05 09:55:15;;;;;;;8.02;2.58;;;;;;;27.01;18.05;96820.09;6234506;22;20020;-90
2022/04/05 09:57:42;;;;;;;4.78;2.72;;;;;;;27.08;18.38;96821.75;6236724;23;20002;-91
2022/04/05 10:00:18;;;;;;;2.55;2.35;;;;;;;27.13;18.69;96827.47;6260902;22;20460;-91
2022/04/05 10:03:00;;;;;;;5.45;2.92;;;;;;;27.24;18.80;96834.16;6234607;23;20031;-91
2022/04/05 10:05:28;;;;;;;7.72;3.28;;;;;;;28.00;17.49;96818.56;6257953;22;20067;-91
2022/04/05 10:07:54;;;;;;;3.67;2.92;;;;;;;28.27;17.43;96802.75;6232798;22;20326;-90
2022/04/05 10:10:20;;;;;;;4.65;3.60;;;;;;;28.49;18.32;96802.13;6231171;22;20017;-91
2022/04/05 10:12:47;;;;;;;3.90;3.10;;;;;;;29.33;17.76;96804.25;6231976;23;20032;-90
2022/04/05 10:15:13;;;;;;;6.80;2.80;;;;;;;28.89;17.71;96804.53;6233427;23;20013;-89
2022/04/05 10:17:45;;;;;;;5.80;3.05;;;;;;;29.12;18.05;96796.44;6234299;23;20009;-91
2022/04/05 10:20:11;;;;;;;;;;;;;;;28.12;18.00;96805.81;6237251;22;20013;-92
2022/04/05 10:22:40;;;;;;;3.97;2.90;;;;;;;24.09;20.69;96784.78;6235410;22;19935;-90
2022/04/05 10:25:07;;;;;;;3.28;2.85;;;;;;;24.78;20.79;96785.72;6234585;23;20006;-91
2022/04/05 10:27:33;;;;;;;8.85;2.90;;;;;;;25.02;20.33;96767.13;6235855;22;20012;-88
2022/04/05 10:30:06;;;;;;;5.80;3.20;;;;;;;25.63;21.09;96798.09;6233109;22;20029;-90
2022/04/05 10:32:57;;;;;;;6.72;4.18;;;;;;;26.19;19.59;96784.91;6232295;22;20110;-89
2022/04/05 10:35:24;;;;;;;5.38;3.00;;;;;;;24.49;21.04;96790.56;6242987;22;20005;-89
2022/04/05 10:37:53;;;;;;;7.22;2.80;;;;;;;25.27;20.85;96774.59;6231972;23;20048;-89
2022/04/05 10:40:20;;;;;;;7.47;3.13;;;;;;;25.61;20.31;96778.31;6235020;22;20024;-88
2022/04/05 10:42:49;;;;;;;6.05;2.92;;;;;;;26.71;19.90;96784.00;6230926;22;20104;-89
2022/04/05 10:45:20;;;;;;;5.57;3.65;;;;;;;27.80;19.03;96782.97;6256471;22;20013;-88
2022/04/05 10:48:13;;;;;;;5.72;3.25;;;;;;;26.16;19.34;96767.00;6232094;23;20001;-88
2022/04/05 10:50:45;;;;;;;3.80;2.95;;;;;;;25.84;20.42;96754.94;6231992;22;20072;-90
2022/04/05 10:53:17;;;;;;;4.13;2.90;;;;;;;26.75;19.49;96735.88;6230822;22;20092;-89
2022/04/05 10:56:01;;;;;;;;;;;;;;;26.89;19.43;96754.00;6230243;22;20131;-89
2022/04/05 10:58:26;;;;;;;5.72;3.20;;;;;;;26.33;19.45;96731.75;6255750;22;19908;-90
2022/04/05 11:01:31;;;;;;;3.83;2.75;;;;;;;23.82;21.91;96735.56;6231219;23;20005;-88
2022/04/05 11:04:20;;;;;;;4.35;2.90;;;;;;;23.04;22.64;96742.72;6230396;22;20407;-88
2022/04/05 11:07:01;;;;;;;3.88;2.80;;;;;;;23.57;22.36;96759.72;6256354;22;20008;-89
2022/04/05 11:09:44;;;;;;;7.40;2.78;;;;;;;26.36;20.26;96745.06;6255288;22;20021;-88
2022/04/05 11:12:20;;;;;;;3.60;3.00;;;;;;;27.57;19.42;96740.63;6229939;22;20423;-88
2022/04/05 11:14:50;;;;;;;11.55;3.40;;;;;;;27.58;19.40;96731.31;6229987;22;20020;-88
2022/04/05 11:17:17;;;;;;;3.92;2.88;;;;;;;28.84;18.79;96722.59;6230730;22;20041;-87
2022/04/05 11:19:45;;;;;;;3.50;2.65;;;;;;;29.36;17.99;96718.38;6229564;22;20425;-87
2022/04/05 11:22:20;;;;;;;7.35;3.00;;;;;;;29.89;17.63;96710.19;6255733;22;20006;-88
2022/04/05 11:24:52;;;;;;;17.15;2.95;;;;;;;27.61;19.08;96714.38;6254565;22;20009;-89
2022/04/05 11:27:45;;;;;;;9.30;2.75;;;;;;;28.62;18.39;96714.97;6256180;22;20002;-88
2022/04/05 11:30:23;;;;;;;10.90;3.63;;;;;;;28.66;18.48;96702.50;6249576;22;20067;-89
2022/04/05 11:33:09;;;;;;;51.47;5.80;;;;;;;29.38;18.55;96710.69;6254938;22;20016;-88
2022/04/05 11:35:44;;;;;;;4.25;2.70;;;;;;;28.67;18.00;96691.22;6151980;23;20008;-88
2022/04/05 11:38:19;;;;;;;2.95;2.65;;;;;;;26.79;19.49;96690.47;6254965;22;20400;-89